CheckWX is a tool to help pilots better visualize weather data.  It is not intended as a substitute for an official pre-flight weather briefing.

10:58:09 UTC

LKMT METAR
Ostrava Leos Janáček Airport
Ostrava, Czech Republic
Current

28 mins ago

LKMT 201030Z 05007KT 360V090 CAVOK 18/M02 Q1029 NOSIG
Observed
Apr-20 @ 10:30 UTC
Wind
  • 050° at 7 KTS
Visibility
10,000+ meters
Flight Rules
VFR
Cloud Levels
  • Clear skies
Temperature
18°C / 64°F
Dewpoint
-2°C / 28°F
Humidity
26%
Altimeter
30.38" Hg
Pressure
1028.92 hPa
Previous

58 mins ago

LKMT 201000Z 02003KT 270V070 CAVOK 18/M00 Q1029 NOSIG
Observed
Apr-20 @ 10:00 UTC
Wind
  • 020° at 3 KTS
Visibility
10,000+ meters
Flight Rules
VFR
Cloud Levels
  • Clear skies
Temperature
18°C / 64°F
Dewpoint
C / 32°F
Humidity
30%
Altimeter
30.38" Hg
Pressure
1028.92 hPa
Previous

1 hour ago

LKMT 200930Z 05003KT 330V110 CAVOK 17/02 Q1029 NOSIG
Observed
Apr-20 @ 09:30 UTC
Wind
  • 050° at 3 KTS
Visibility
10,000+ meters
Flight Rules
VFR
Cloud Levels
  • Clear skies
Temperature
17°C / 63°F
Dewpoint
C / 36°F
Humidity
37%
Altimeter
30.38" Hg
Pressure
1028.92 hPa